sensor_id;sensor_type;location;lat;lon;timestamp;pressure;altitude;pressure_sealevel;temperature;humidity
75656;BME280;64252;51.094;13.714;2023-04-30T00:01:09;100754.13;;;9.97;91.49
75656;BME280;64252;51.094;13.714;2023-04-30T00:03:34;100755.78;;;9.98;91.79
75656;BME280;64252;51.094;13.714;2023-04-30T00:06:00;100750.53;;;10.00;90.60
75656;BME280;64252;51.094;13.714;2023-04-30T00:08:25;100752.19;;;10.01;90.92
75656;BME280;64252;51.094;13.714;2023-04-30T00:10:51;100760.28;;;10.02;90.76
75656;BME280;64252;51.094;13.714;2023-04-30T00:13:17;100759.00;;;10.00;90.43
75656;BME280;64252;51.094;13.714;2023-04-30T00:15:43;100766.72;;;10.03;89.23
75656;BME280;64252;51.094;13.714;2023-04-30T00:18:09;100767.94;;;10.02;90.23
75656;BME280;64252;51.094;13.714;2023-04-30T00:20:35;100761.84;;;10.00;89.87
75656;BME280;64252;51.094;13.714;2023-04-30T00:23:00;100768.81;;;10.06;87.87
75656;BME280;64252;51.094;13.714;2023-04-30T00:25:26;100762.41;;;10.09;86.05
75656;BME280;64252;51.094;13.714;2023-04-30T00:27:51;100766.41;;;10.08;86.29
75656;BME280;64252;51.094;13.714;2023-04-30T00:30:17;100767.16;;;10.05;86.89
75656;BME280;64252;51.094;13.714;2023-04-30T00:32:43;100777.94;;;9.99;84.99
75656;BME280;64252;51.094;13.714;2023-04-30T00:35:10;100775.81;;;9.93;85.96
75656;BME280;64252;51.094;13.714;2023-04-30T00:37:36;100782.91;;;9.83;84.98
75656;BME280;64252;51.094;13.714;2023-04-30T00:40:02;100783.50;;;9.73;85.15
75656;BME280;64252;51.094;13.714;2023-04-30T00:42:28;100780.47;;;9.62;86.02
75656;BME280;64252;51.094;13.714;2023-04-30T00:44:54;100779.44;;;9.51;85.46
75656;BME280;64252;51.094;13.714;2023-04-30T00:47:19;100792.94;;;9.42;85.91
75656;BME280;64252;51.094;13.714;2023-04-30T00:49:45;100795.94;;;9.30;86.54
75656;BME280;64252;51.094;13.714;2023-04-30T00:52:10;100798.91;;;9.18;87.52
75656;BME280;64252;51.094;13.714;2023-04-30T00:54:37;100794.75;;;9.12;87.93
75656;BME280;64252;51.094;13.714;2023-04-30T00:57:04;100795.47;;;9.09;86.75
75656;BME280;64252;51.094;13.714;2023-04-30T00:59:30;100801.31;;;9.00;88.15
75656;BME280;64252;51.094;13.714;2023-04-30T01:01:56;100802.69;;;8.91;87.89
75656;BME280;64252;51.094;13.714;2023-04-30T01:04:22;100799.75;;;8.84;87.60
75656;BME280;64252;51.094;13.714;2023-04-30T01:06:48;100805.94;;;8.73;88.09
75656;BME280;64252;51.094;13.714;2023-04-30T01:09:14;100818.75;;;8.71;88.37
75656;BME280;64252;51.094;13.714;2023-04-30T01:12:28;100820.13;;;8.61;88.37
75656;BME280;64252;51.094;13.714;2023-04-30T01:15:38;100825.59;;;8.54;89.21
75656;BME280;64252;51.094;13.714;2023-04-30T01:18:24;100828.41;;;8.38;89.80
75656;BME280;64252;51.094;13.714;2023-04-30T01:21:11;100820.16;;;8.30;90.15
75656;BME280;64252;51.094;13.714;2023-04-30T01:24:20;100817.50;;;8.21;90.65
75656;BME280;64252;51.094;13.714;2023-04-30T01:27:04;100826.19;;;8.16;90.75
75656;BME280;64252;51.094;13.714;2023-04-30T01:29:31;100826.09;;;8.13;90.60
75656;BME280;64252;51.094;13.714;2023-04-30T01:31:58;100831.53;;;8.06;91.34
75656;BME280;64252;51.094;13.714;2023-04-30T01:34:25;100838.63;;;8.00;91.10
75656;BME280;64252;51.094;13.714;2023-04-30T01:37:17;100840.97;;;7.98;91.66
75656;BME280;64252;51.094;13.714;2023-04-30T01:39:49;100837.50;;;7.88;92.28
75656;BME280;64252;51.094;13.714;2023-04-30T01:42:21;100847.19;;;7.91;92.16
75656;BME280;64252;51.094;13.714;2023-04-30T01:45:05;100855.53;;;7.87;92.34
75656;BME280;64252;51.094;13.714;2023-04-30T01:47:39;100853.13;;;7.86;92.49
75656;BME280;64252;51.094;13.714;2023-04-30T01:50:24;100853.25;;;7.77;92.70
75656;BME280;64252;51.094;13.714;2023-04-30T01:52:55;100857.97;;;7.73;93.10
75656;BME280;64252;51.094;13.714;2023-04-30T02:00:18;100875.88;;;7.53;94.13
75656;BME280;64252;51.094;13.714;2023-04-30T02:02:43;100874.00;;;7.45;93.99
75656;BME280;64252;51.094;13.714;2023-04-30T02:05:09;100876.97;;;7.36;94.27
75656;BME280;64252;51.094;13.714;2023-04-30T02:07:42;100877.69;;;7.33;95.30
75656;BME280;64252;51.094;13.714;2023-04-30T02:10:09;100890.44;;;7.31;95.14
75656;BME280;64252;51.094;13.714;2023-04-30T02:12:36;100898.03;;;7.30;95.11
75656;BME280;64252;51.094;13.714;2023-04-30T02:15:03;100901.47;;;7.24;94.99
75656;BME280;64252;51.094;13.714;2023-04-30T02:17:29;100907.78;;;7.21;95.86
75656;BME280;64252;51.094;13.714;2023-04-30T02:19:56;100910.38;;;7.14;96.01
75656;BME280;64252;51.094;13.714;2023-04-30T02:22:21;100916.81;;;7.14;95.82
75656;BME280;64252;51.094;13.714;2023-04-30T02:24:47;100915.06;;;7.10;96.20
75656;BME280;64252;51.094;13.714;2023-04-30T02:27:13;100919.97;;;7.13;95.99
75656;BME280;64252;51.094;13.714;2023-04-30T02:29:38;100922.41;;;7.14;95.53
75656;BME280;64252;51.094;13.714;2023-04-30T02:32:05;100929.78;;;7.06;96.80
75656;BME280;64252;51.094;13.714;2023-04-30T02:34:31;100928.03;;;7.02;97.04
75656;BME280;64252;51.094;13.714;2023-04-30T02:36:57;100924.66;;;6.96;97.47
75656;BME280;64252;51.094;13.714;2023-04-30T02:39:22;100930.28;;;6.96;97.87
75656;BME280;64252;51.094;13.714;2023-04-30T02:41:49;100931.91;;;6.97;97.76
75656;BME280;64252;51.094;13.714;2023-04-30T02:44:15;100931.69;;;6.90;98.22
75656;BME280;64252;51.094;13.714;2023-04-30T02:46:40;100939.63;;;6.88;97.59
75656;BME280;64252;51.094;13.714;2023-04-30T02:49:07;100941.59;;;6.88;97.16
75656;BME280;64252;51.094;13.714;2023-04-30T02:51:36;100940.78;;;6.75;97.70
75656;BME280;64252;51.094;13.714;2023-04-30T02:54:01;100941.50;;;6.72;97.39
75656;BME280;64252;51.094;13.714;2023-04-30T02:56:27;100946.63;;;6.70;96.99
75656;BME280;64252;51.094;13.714;2023-04-30T02:58:52;100955.75;;;6.67;97.17
75656;BME280;64252;51.094;13.714;2023-04-30T03:01:18;100951.53;;;6.61;97.65
75656;BME280;64252;51.094;13.714;2023-04-30T03:03:44;100959.34;;;6.55;97.80
75656;BME280;64252;51.094;13.714;2023-04-30T03:06:09;100959.47;;;6.47;98.31
75656;BME280;64252;51.094;13.714;2023-04-30T03:08:35;100954.91;;;6.42;97.81
75656;BME280;64252;51.094;13.714;2023-04-30T03:11:00;100964.69;;;6.36;98.45
75656;BME280;64252;51.094;13.714;2023-04-30T03:13:27;100973.00;;;6.33;98.36
75656;BME280;64252;51.094;13.714;2023-04-30T03:15:59;100972.59;;;6.22;97.82
75656;BME280;64252;51.094;13.714;2023-04-30T03:18:28;100974.56;;;6.22;98.07
75656;BME280;64252;51.094;13.714;2023-04-30T03:20:54;100976.44;;;6.17;97.99
75656;BME280;64252;51.094;13.714;2023-04-30T03:23:19;100978.09;;;6.18;98.34
75656;BME280;64252;51.094;13.714;2023-04-30T03:25:46;100978.78;;;6.15;97.97
75656;BME280;64252;51.094;13.714;2023-04-30T03:28:11;100990.25;;;6.23;97.34
75656;BME280;64252;51.094;13.714;2023-04-30T03:30:37;100988.75;;;6.25;96.62
75656;BME280;64252;51.094;13.714;2023-04-30T03:33:03;100994.22;;;6.22;96.88
75656;BME280;64252;51.094;13.714;2023-04-30T03:35:31;100994.09;;;6.18;96.60
75656;BME280;64252;51.094;13.714;2023-04-30T03:37:59;100994.44;;;6.16;96.67
75656;BME280;64252;51.094;13.714;2023-04-30T03:40:25;100999.09;;;6.12;97.32
75656;BME280;64252;51.094;13.714;2023-04-30T03:42:51;101002.59;;;6.09;96.96
75656;BME280;64252;51.094;13.714;2023-04-30T03:45:17;101000.94;;;6.08;97.17
75656;BME280;64252;51.094;13.714;2023-04-30T03:47:42;101000.28;;;6.11;96.99
75656;BME280;64252;51.094;13.714;2023-04-30T03:50:09;101005.19;;;6.14;96.42
75656;BME280;64252;51.094;13.714;2023-04-30T03:52:35;101008.59;;;6.20;96.54
75656;BME280;64252;51.094;13.714;2023-04-30T03:55:04;101008.16;;;6.30;96.03
75656;BME280;64252;51.094;13.714;2023-04-30T03:57:31;101013.69;;;6.39;94.62
75656;BME280;64252;51.094;13.714;2023-04-30T03:59:57;101010.06;;;6.38;94.74
75656;BME280;64252;51.094;13.714;2023-04-30T04:02:23;101023.03;;;6.43;94.45
75656;BME280;64252;51.094;13.714;2023-04-30T04:04:50;101023.03;;;6.43;94.08
75656;BME280;64252;51.094;13.714;2023-04-30T04:07:16;101021.75;;;6.40;94.45
75656;BME280;64252;51.094;13.714;2023-04-30T04:09:42;101027.00;;;6.42;93.99
75656;BME280;64252;51.094;13.714;2023-04-30T04:12:07;101032.00;;;6.36;94.57
75656;BME280;64252;51.094;13.714;2023-04-30T04:14:34;101025.25;;;6.37;94.27
75656;BME280;64252;51.094;13.714;2023-04-30T04:17:00;101040.91;;;6.38;94.67
75656;BME280;64252;51.094;13.714;2023-04-30T04:19:26;101035.63;;;6.37;93.91
75656;BME280;64252;51.094;13.714;2023-04-30T04:21:52;101041.94;;;6.34;94.20
75656;BME280;64252;51.094;13.714;2023-04-30T04:24:18;101047.56;;;6.34;94.10
75656;BME280;64252;51.094;13.714;2023-04-30T04:26:44;101053.63;;;6.36;94.66
75656;BME280;64252;51.094;13.714;2023-04-30T04:29:10;101054.81;;;6.35;93.92
75656;BME280;64252;51.094;13.714;2023-04-30T04:31:37;101053.88;;;6.31;93.24
75656;BME280;64252;51.094;13.714;2023-04-30T04:34:06;101063.44;;;6.30;93.39
75656;BME280;64252;51.094;13.714;2023-04-30T04:36:31;101065.34;;;6.38;92.63
75656;BME280;64252;51.094;13.714;2023-04-30T04:38:59;101067.09;;;6.42;92.93
75656;BME280;64252;51.094;13.714;2023-04-30T04:41:30;101072.00;;;6.45;93.24
75656;BME280;64252;51.094;13.714;2023-04-30T04:44:01;101073.53;;;6.43;93.14
75656;BME280;64252;51.094;13.714;2023-04-30T04:46:29;101076.13;;;6.48;93.31
75656;BME280;64252;51.094;13.714;2023-04-30T04:48:54;101080.50;;;6.57;92.38
75656;BME280;64252;51.094;13.714;2023-04-30T04:51:20;101080.06;;;6.68;92.05
75656;BME280;64252;51.094;13.714;2023-04-30T04:53:46;101089.81;;;6.82;90.80
75656;BME280;64252;51.094;13.714;2023-04-30T04:56:12;101084.22;;;6.94;90.63
75656;BME280;64252;51.094;13.714;2023-04-30T04:58:38;101088.56;;;7.04;89.25
75656;BME280;64252;51.094;13.714;2023-04-30T05:01:04;101086.00;;;7.11;89.44
75656;BME280;64252;51.094;13.714;2023-04-30T05:03:31;101097.97;;;7.20;89.40
75656;BME280;64252;51.094;13.714;2023-04-30T05:05:58;101094.91;;;7.25;89.29
75656;BME280;64252;51.094;13.714;2023-04-30T05:08:24;101100.41;;;7.22;88.38
75656;BME280;64252;51.094;13.714;2023-04-30T05:10:51;101104.25;;;7.17;87.84
75656;BME280;64252;51.094;13.714;2023-04-30T05:13:16;101102.75;;;7.32;88.21
75656;BME280;64252;51.094;13.714;2023-04-30T05:15:42;101100.22;;;7.39;88.03
75656;BME280;64252;51.094;13.714;2023-04-30T05:18:09;101099.97;;;7.56;87.52
75656;BME280;64252;51.094;13.714;2023-04-30T05:20:34;101108.56;;;8.12;85.20
75656;BME280;64252;51.094;13.714;2023-04-30T05:23:00;101108.78;;;8.31;83.63
75656;BME280;64252;51.094;13.714;2023-04-30T05:25:25;101106.94;;;8.78;82.46
75656;BME280;64252;51.094;13.714;2023-04-30T05:27:51;101122.84;;;9.30;79.47
75656;BME280;64252;51.094;13.714;2023-04-30T05:30:16;101108.25;;;8.97;79.90
75656;BME280;64252;51.094;13.714;2023-04-30T05:32:42;101120.56;;;8.76;81.17
75656;BME280;64252;51.094;13.714;2023-04-30T05:35:08;101120.97;;;8.63;81.23
75656;BME280;64252;51.094;13.714;2023-04-30T05:37:34;101125.78;;;8.62;82.61
75656;BME280;64252;51.094;13.714;2023-04-30T05:39:59;101114.34;;;8.55;81.88
75656;BME280;64252;51.094;13.714;2023-04-30T05:42:25;101119.38;;;8.77;81.15
75656;BME280;64252;51.094;13.714;2023-04-30T05:44:51;101125.78;;;8.90;79.71
75656;BME280;64252;51.094;13.714;2023-04-30T05:47:17;101127.78;;;8.90;79.86
75656;BME280;64252;51.094;13.714;2023-04-30T05:49:43;101129.00;;;8.76;80.79
75656;BME280;64252;51.094;13.714;2023-04-30T05:52:08;101130.31;;;8.51;81.15
75656;BME280;64252;51.094;13.714;2023-04-30T05:54:34;101133.47;;;8.50;80.95
75656;BME280;64252;51.094;13.714;2023-04-30T05:56:59;101130.22;;;8.75;79.92
75656;BME280;64252;51.094;13.714;2023-04-30T05:59:25;101125.84;;;8.78;80.79
75656;BME280;64252;51.094;13.714;2023-04-30T06:01:51;101131.53;;;8.94;82.34
75656;BME280;64252;51.094;13.714;2023-04-30T06:04:17;101134.81;;;9.11;79.41
75656;BME280;64252;51.094;13.714;2023-04-30T06:06:42;101141.56;;;9.22;77.85
75656;BME280;64252;51.094;13.714;2023-04-30T06:09:11;101136.59;;;9.32;78.60
75656;BME280;64252;51.094;13.714;2023-04-30T06:11:36;101141.03;;;9.48;79.28
75656;BME280;64252;51.094;13.714;2023-04-30T06:14:03;101134.41;;;9.41;76.87
75656;BME280;64252;51.094;13.714;2023-04-30T06:16:29;101136.66;;;9.35;79.00
75656;BME280;64252;51.094;13.714;2023-04-30T06:18:55;101144.66;;;9.33;76.69
75656;BME280;64252;51.094;13.714;2023-04-30T06:21:20;101142.44;;;9.11;77.43
75656;BME280;64252;51.094;13.714;2023-04-30T06:23:50;101143.19;;;9.08;78.70
75656;BME280;64252;51.094;13.714;2023-04-30T06:26:16;101142.72;;;9.06;79.23
75656;BME280;64252;51.094;13.714;2023-04-30T06:28:42;101144.28;;;9.19;78.75
75656;BME280;64252;51.094;13.714;2023-04-30T06:31:07;101155.75;;;9.26;77.81
75656;BME280;64252;51.094;13.714;2023-04-30T06:33:33;101150.03;;;9.22;77.07
75656;BME280;64252;51.094;13.714;2023-04-30T06:35:58;101145.00;;;9.16;77.43
75656;BME280;64252;51.094;13.714;2023-04-30T06:38:24;101136.31;;;9.52;76.68
75656;BME280;64252;51.094;13.714;2023-04-30T06:40:50;101134.78;;;9.55;75.74
75656;BME280;64252;51.094;13.714;2023-04-30T06:43:16;101142.28;;;9.98;75.70
75656;BME280;64252;51.094;13.714;2023-04-30T06:45:41;101142.22;;;10.29;73.88
75656;BME280;64252;51.094;13.714;2023-04-30T06:48:07;101138.81;;;10.20;74.63
75656;BME280;64252;51.094;13.714;2023-04-30T06:50:32;101135.16;;;10.04;74.40
75656;BME280;64252;51.094;13.714;2023-04-30T06:52:58;101146.09;;;10.21;74.83
75656;BME280;64252;51.094;13.714;2023-04-30T06:55:24;101139.69;;;10.24;73.86
75656;BME280;64252;51.094;13.714;2023-04-30T06:57:49;101140.09;;;9.91;73.30
75656;BME280;64252;51.094;13.714;2023-04-30T07:00:15;101150.75;;;9.98;74.15
75656;BME280;64252;51.094;13.714;2023-04-30T07:02:41;101141.97;;;10.19;75.05
75656;BME280;64252;51.094;13.714;2023-04-30T07:05:07;101148.06;;;10.05;72.79
75656;BME280;64252;51.094;13.714;2023-04-30T07:07:33;101148.63;;;10.45;72.36
75656;BME280;64252;51.094;13.714;2023-04-30T07:09:59;101145.97;;;11.33;72.33
75656;BME280;64252;51.094;13.714;2023-04-30T07:12:24;101143.03;;;11.71;71.85
75656;BME280;64252;51.094;13.714;2023-04-30T07:14:50;101142.38;;;11.59;69.29
75656;BME280;64252;51.094;13.714;2023-04-30T07:17:15;101149.50;;;11.07;69.63
75656;BME280;64252;51.094;13.714;2023-04-30T07:19:42;101150.94;;;10.97;70.63
75656;BME280;64252;51.094;13.714;2023-04-30T07:22:08;101141.75;;;11.23;70.75
75656;BME280;64252;51.094;13.714;2023-04-30T07:24:40;101144.53;;;11.42;70.66
75656;BME280;64252;51.094;13.714;2023-04-30T07:27:06;101146.91;;;11.40;70.15
75656;BME280;64252;51.094;13.714;2023-04-30T07:29:32;101138.50;;;11.02;69.81
75656;BME280;64252;51.094;13.714;2023-04-30T07:31:57;101147.50;;;10.50;72.04
75656;BME280;64252;51.094;13.714;2023-04-30T07:34:24;101154.81;;;10.51;71.53
75656;BME280;64252;51.094;13.714;2023-04-30T07:36:49;101151.94;;;11.28;70.46
75656;BME280;64252;51.094;13.714;2023-04-30T07:39:40;101137.41;;;11.98;67.01
75656;BME280;64252;51.094;13.714;2023-04-30T07:42:06;101145.50;;;12.25;67.26
75656;BME280;64252;51.094;13.714;2023-04-30T07:44:31;101150.94;;;11.39;67.61
75656;BME280;64252;51.094;13.714;2023-04-30T07:46:57;101156.22;;;10.80;69.61
75656;BME280;64252;51.094;13.714;2023-04-30T07:49:23;101160.84;;;10.69;70.41
75656;BME280;64252;51.094;13.714;2023-04-30T07:51:49;101159.22;;;10.87;68.95
75656;BME280;64252;51.094;13.714;2023-04-30T07:54:15;101155.16;;;11.07;69.89
75656;BME280;64252;51.094;13.714;2023-04-30T07:56:40;101161.50;;;11.88;67.07
75656;BME280;64252;51.094;13.714;2023-04-30T07:59:07;101160.38;;;11.70;68.01
75656;BME280;64252;51.094;13.714;2023-04-30T08:01:32;101165.47;;;11.61;68.77
75656;BME280;64252;51.094;13.714;2023-04-30T08:03:58;101152.09;;;11.58;67.79
75656;BME280;64252;51.094;13.714;2023-04-30T08:06:24;101159.56;;;11.69;67.37
75656;BME280;64252;51.094;13.714;2023-04-30T08:08:51;101163.97;;;11.90;67.23
75656;BME280;64252;51.094;13.714;2023-04-30T08:11:17;101163.22;;;11.93;65.37
75656;BME280;64252;51.094;13.714;2023-04-30T08:13:43;101164.91;;;11.97;64.60
75656;BME280;64252;51.094;13.714;2023-04-30T08:16:08;101161.59;;;12.48;62.46
75656;BME280;64252;51.094;13.714;2023-04-30T08:18:40;101164.56;;;12.85;61.69
75656;BME280;64252;51.094;13.714;2023-04-30T08:21:10;101155.00;;;12.37;63.64
75656;BME280;64252;51.094;13.714;2023-04-30T08:23:36;101159.88;;;11.87;65.83
75656;BME280;64252;51.094;13.714;2023-04-30T08:26:01;101167.09;;;11.39;66.07
75656;BME280;64252;51.094;13.714;2023-04-30T08:28:27;101168.09;;;11.50;65.85
75656;BME280;64252;51.094;13.714;2023-04-30T08:30:53;101170.78;;;12.11;65.38
75656;BME280;64252;51.094;13.714;2023-04-30T08:33:19;101172.06;;;12.70;61.24
75656;BME280;64252;51.094;13.714;2023-04-30T08:35:44;101161.13;;;12.72;61.54
75656;BME280;64252;51.094;13.714;2023-04-30T08:38:11;101174.09;;;12.73;62.50
75656;BME280;64252;51.094;13.714;2023-04-30T08:40:39;101180.16;;;12.42;62.76
75656;BME280;64252;51.094;13.714;2023-04-30T08:43:07;101171.47;;;12.57;62.03
75656;BME280;64252;51.094;13.714;2023-04-30T08:45:34;101171.13;;;13.66;59.79
75656;BME280;64252;51.094;13.714;2023-04-30T08:48:02;101174.81;;;13.30;60.14
75656;BME280;64252;51.094;13.714;2023-04-30T08:50:29;101174.56;;;13.08;60.96
75656;BME280;64252;51.094;13.714;2023-04-30T08:52:59;101170.50;;;12.76;62.21
75656;BME280;64252;51.094;13.714;2023-04-30T08:55:26;101178.09;;;12.12;63.44
75656;BME280;64252;51.094;13.714;2023-04-30T08:57:52;101174.16;;;12.20;63.66
75656;BME280;64252;51.094;13.714;2023-04-30T09:00:17;101168.56;;;12.80;59.64
75656;BME280;64252;51.094;13.714;2023-04-30T09:02:44;101170.50;;;13.43;59.45
75656;BME280;64252;51.094;13.714;2023-04-30T09:05:12;101170.69;;;13.24;59.74
75656;BME280;64252;51.094;13.714;2023-04-30T09:07:41;101171.56;;;12.64;62.09
75656;BME280;64252;51.094;13.714;2023-04-30T09:10:17;101173.94;;;12.06;63.70
75656;BME280;64252;51.094;13.714;2023-04-30T09:12:43;101166.88;;;12.19;64.74
75656;BME280;64252;51.094;13.714;2023-04-30T09:15:11;101167.38;;;12.55;62.85
75656;BME280;64252;51.094;13.714;2023-04-30T09:17:38;101175.97;;;12.32;63.04
75656;BME280;64252;51.094;13.714;2023-04-30T09:20:11;101162.91;;;13.13;62.68
75656;BME280;64252;51.094;13.714;2023-04-30T09:22:38;101163.44;;;14.14;58.67
75656;BME280;64252;51.094;13.714;2023-04-30T09:25:04;101165.56;;;14.28;57.70
75656;BME280;64252;51.094;13.714;2023-04-30T09:27:30;101170.78;;;13.31;58.73
75656;BME280;64252;51.094;13.714;2023-04-30T09:29:56;101168.91;;;12.49;61.81
75656;BME280;64252;51.094;13.714;2023-04-30T09:32:22;101175.44;;;12.23;63.05
75656;BME280;64252;51.094;13.714;2023-04-30T09:34:47;101170.19;;;13.14;60.10
75656;BME280;64252;51.094;13.714;2023-04-30T09:37:13;101165.00;;;14.04;59.07
75656;BME280;64252;51.094;13.714;2023-04-30T09:39:50;101175.69;;;13.34;58.62
75656;BME280;64252;51.094;13.714;2023-04-30T09:42:17;101166.41;;;13.03;58.64
75656;BME280;64252;51.094;13.714;2023-04-30T09:44:46;101164.28;;;12.97;59.86
75656;BME280;64252;51.094;13.714;2023-04-30T09:47:17;101163.22;;;13.08;58.71
75656;BME280;64252;51.094;13.714;2023-04-30T09:49:47;101161.41;;;12.93;55.54
75656;BME280;64252;51.094;13.714;2023-04-30T09:52:16;101155.56;;;13.46;53.77
75656;BME280;64252;51.094;13.714;2023-04-30T09:54:43;101155.63;;;14.00;53.31
75656;BME280;64252;51.094;13.714;2023-04-30T09:57:10;101150.78;;;14.04;55.51
75656;BME280;64252;51.094;13.714;2023-04-30T09:59:41;101146.94;;;13.79;54.85
75656;BME280;64252;51.094;13.714;2023-04-30T10:02:08;101154.03;;;12.85;56.64
75656;BME280;64252;51.094;13.714;2023-04-30T10:04:37;101151.16;;;12.52;58.57
75656;BME280;64252;51.094;13.714;2023-04-30T10:07:15;101152.63;;;12.72;57.59
75656;BME280;64252;51.094;13.714;2023-04-30T10:10:08;101137.41;;;13.13;55.05
75656;BME280;64252;51.094;13.714;2023-04-30T10:12:55;101139.34;;;13.46;55.50
75656;BME280;64252;51.094;13.714;2023-04-30T10:15:30;101138.72;;;12.90;55.97
75656;BME280;64252;51.094;13.714;2023-04-30T10:18:01;101136.22;;;12.55;57.30
75656;BME280;64252;51.094;13.714;2023-04-30T10:20:29;101133.31;;;12.81;56.43
75656;BME280;64252;51.094;13.714;2023-04-30T10:22:56;101124.00;;;13.51;56.09
75656;BME280;64252;51.094;13.714;2023-04-30T10:25:21;101122.59;;;13.78;52.49
75656;BME280;64252;51.094;13.714;2023-04-30T10:27:48;101123.50;;;14.47;53.56
75656;BME280;64252;51.094;13.714;2023-04-30T10:30:14;101131.19;;;14.40;52.99
75656;BME280;64252;51.094;13.714;2023-04-30T10:35:25;101134.00;;;13.04;54.70
75656;BME280;64252;51.094;13.714;2023-04-30T10:38:09;101124.19;;;12.95;54.31
75656;BME280;64252;51.094;13.714;2023-04-30T10:40:37;101129.31;;;13.19;53.65
75656;BME280;64252;51.094;13.714;2023-04-30T10:43:03;101125.78;;;13.70;52.64
75656;BME280;64252;51.094;13.714;2023-04-30T10:45:35;101116.34;;;14.13;51.70
75656;BME280;64252;51.094;13.714;2023-04-30T10:48:03;101114.78;;;14.23;50.02
75656;BME280;64252;51.094;13.714;2023-04-30T10:50:29;101118.81;;;14.15;52.13
75656;BME280;64252;51.094;13.714;2023-04-30T10:53:16;101111.59;;;14.31;52.22
75656;BME280;64252;51.094;13.714;2023-04-30T10:55:47;101121.31;;;14.27;50.67
75656;BME280;64252;51.094;13.714;2023-04-30T10:58:36;101109.84;;;14.09;52.18
75656;BME280;64252;51.094;13.714;2023-04-30T11:01:04;101115.59;;;13.65;52.36
75656;BME280;64252;51.094;13.714;2023-04-30T11:03:32;101114.84;;;13.28;55.75
75656;BME280;64252;51.094;13.714;2023-04-30T11:05:59;101114.94;;;13.82;52.63
75656;BME280;64252;51.094;13.714;2023-04-30T11:08:33;101106.69;;;14.25;51.20
75656;BME280;64252;51.094;13.714;2023-04-30T11:10:59;101106.06;;;14.53;49.73
75656;BME280;64252;51.094;13.714;2023-04-30T11:13:46;101101.81;;;14.22;49.50
75656;BME280;64252;51.094;13.714;2023-04-30T11:16:12;101094.59;;;14.35;49.64
75656;BME280;64252;51.094;13.714;2023-04-30T11:18:42;101098.31;;;14.46;51.68
75656;BME280;64252;51.094;13.714;2023-04-30T11:21:08;101095.44;;;14.39;50.93
75656;BME280;64252;51.094;13.714;2023-04-30T11:23:34;101091.44;;;14.47;50.93
75656;BME280;64252;51.094;13.714;2023-04-30T11:26:00;101088.69;;;14.72;50.38
75656;BME280;64252;51.094;13.714;2023-04-30T11:28:27;101088.75;;;14.89;49.67
75656;BME280;64252;51.094;13.714;2023-04-30T11:30:54;101088.31;;;14.73;50.00
75656;BME280;64252;51.094;13.714;2023-04-30T11:33:22;101089.84;;;14.53;50.95
75656;BME280;64252;51.094;13.714;2023-04-30T11:35:49;101083.97;;;14.21;51.90
75656;BME280;64252;51.094;13.714;2023-04-30T11:38:20;101086.44;;;13.68;50.16
75656;BME280;64252;51.094;13.714;2023-04-30T11:40:47;101090.69;;;13.95;51.25
75656;BME280;64252;51.094;13.714;2023-04-30T11:43:39;101100.13;;;14.14;49.73
75656;BME280;64252;51.094;13.714;2023-04-30T11:46:12;101099.28;;;14.10;48.57
75656;BME280;64252;51.094;13.714;2023-04-30T11:48:43;101095.28;;;14.18;49.91
75656;BME280;64252;51.094;13.714;2023-04-30T11:51:19;101087.31;;;14.41;50.10
75656;BME280;64252;51.094;13.714;2023-04-30T11:53:45;101088.97;;;14.45;50.57
75656;BME280;64252;51.094;13.714;2023-04-30T11:56:11;101085.72;;;14.40;52.81
75656;BME280;64252;51.094;13.714;2023-04-30T11:58:37;101081.50;;;14.16;50.15
75656;BME280;64252;51.094;13.714;2023-04-30T12:01:07;101088.56;;;14.40;50.42
75656;BME280;64252;51.094;13.714;2023-04-30T12:03:43;101086.63;;;14.65;50.97
75656;BME280;64252;51.094;13.714;2023-04-30T12:06:29;101071.59;;;14.65;48.41
75656;BME280;64252;51.094;13.714;2023-04-30T12:08:56;101074.38;;;14.50;49.05
75656;BME280;64252;51.094;13.714;2023-04-30T12:11:24;101064.63;;;14.44;49.38
75656;BME280;64252;51.094;13.714;2023-04-30T12:13:51;101063.00;;;14.40;48.60
75656;BME280;64252;51.094;13.714;2023-04-30T12:16:17;101059.81;;;14.59;47.85
75656;BME280;64252;51.094;13.714;2023-04-30T12:18:44;101058.97;;;14.52;45.40
75656;BME280;64252;51.094;13.714;2023-04-30T12:21:10;101064.66;;;14.55;46.32
75656;BME280;64252;51.094;13.714;2023-04-30T12:23:36;101068.75;;;14.58;47.31
75656;BME280;64252;51.094;13.714;2023-04-30T12:26:02;101060.66;;;14.67;46.46
75656;BME280;64252;51.094;13.714;2023-04-30T12:28:27;101068.34;;;14.59;46.36
75656;BME280;64252;51.094;13.714;2023-04-30T12:30:53;101068.59;;;14.33;44.72
75656;BME280;64252;51.094;13.714;2023-04-30T12:33:19;101069.50;;;14.40;45.68
75656;BME280;64252;51.094;13.714;2023-04-30T12:35:44;101064.59;;;14.37;46.22
75656;BME280;64252;51.094;13.714;2023-04-30T12:38:14;101060.16;;;14.50;46.90
75656;BME280;64252;51.094;13.714;2023-04-30T12:40:45;101052.94;;;14.71;45.86
75656;BME280;64252;51.094;13.714;2023-04-30T12:43:14;101041.22;;;14.83;46.46
75656;BME280;64252;51.094;13.714;2023-04-30T12:45:54;101050.06;;;14.60;47.10
75656;BME280;64252;51.094;13.714;2023-04-30T12:48:22;101048.03;;;14.61;47.36
75656;BME280;64252;51.094;13.714;2023-04-30T12:50:53;101051.63;;;14.43;45.19
75656;BME280;64252;51.094;13.714;2023-04-30T12:53:20;101040.25;;;14.43;45.98
75656;BME280;64252;51.094;13.714;2023-04-30T12:56:08;101052.34;;;14.26;46.42
75656;BME280;64252;51.094;13.714;2023-04-30T12:58:34;101042.66;;;14.38;46.14